sensor_id;sensor_type;location;lat;lon;timestamp;pressure;altitude;pressure_sealevel;temperature;humidity
70546;BME280;58098;51.680;5.134;2023-05-09T00:00:38;101804.03;;;14.88;100.00
70546;BME280;58098;51.680;5.134;2023-05-09T00:03:03;101808.97;;;14.82;100.00
70546;BME280;58098;51.680;5.134;2023-05-09T00:05:30;101824.38;;;14.86;100.00
70546;BME280;58098;51.680;5.134;2023-05-09T00:07:55;101804.44;;;14.73;100.00
70546;BME280;58098;51.680;5.134;2023-05-09T00:10:21;101811.25;;;14.75;100.00
70546;BME280;58098;51.680;5.134;2023-05-09T00:12:46;101813.16;;;14.73;100.00
70546;BME280;58098;51.680;5.134;2023-05-09T00:15:13;101809.69;;;14.73;100.00
70546;BME280;58098;51.680;5.134;2023-05-09T00:17:39;101813.28;;;14.72;100.00
70546;BME280;58098;51.680;5.134;2023-05-09T00:20:06;101813.28;;;14.72;100.00
70546;BME280;58098;51.680;5.134;2023-05-09T00:22:34;101801.25;;;14.69;100.00
70546;BME280;58098;51.680;5.134;2023-05-09T00:25:00;101802.19;;;14.68;100.00
70546;BME280;58098;51.680;5.134;2023-05-09T00:27:25;101792.19;;;14.62;100.00
70546;BME280;58098;51.680;5.134;2023-05-09T00:29:50;101791.81;;;14.55;100.00
70546;BME280;58098;51.680;5.134;2023-05-09T00:32:16;101783.16;;;14.44;100.00
70546;BME280;58098;51.680;5.134;2023-05-09T00:34:41;101798.06;;;14.54;100.00
70546;BME280;58098;51.680;5.134;2023-05-09T00:37:06;101791.00;;;14.55;100.00
70546;BME280;58098;51.680;5.134;2023-05-09T00:39:32;101781.31;;;14.55;100.00
70546;BME280;58098;51.680;5.134;2023-05-09T00:41:57;101785.75;;;14.55;100.00
70546;BME280;58098;51.680;5.134;2023-05-09T00:44:22;101775.72;;;14.49;100.00
70546;BME280;58098;51.680;5.134;2023-05-09T00:46:48;101784.31;;;14.51;100.00
70546;BME280;58098;51.680;5.134;2023-05-09T00:49:13;101765.13;;;14.39;100.00
70546;BME280;58098;51.680;5.134;2023-05-09T00:51:39;101772.53;;;14.45;100.00
70546;BME280;58098;51.680;5.134;2023-05-09T00:54:06;101764.91;;;14.42;100.00
70546;BME280;58098;51.680;5.134;2023-05-09T00:56:31;101754.03;;;14.36;100.00
70546;BME280;58098;51.680;5.134;2023-05-09T00:58:57;101756.09;;;14.32;100.00
70546;BME280;58098;51.680;5.134;2023-05-09T01:01:23;101763.13;;;14.32;100.00
70546;BME280;58098;51.680;5.134;2023-05-09T01:03:49;101742.59;;;14.26;100.00
70546;BME280;58098;51.680;5.134;2023-05-09T01:08:48;101748.41;;;14.29;100.00
70546;BME280;58098;51.680;5.134;2023-05-09T01:11:23;101736.50;;;14.25;100.00
70546;BME280;58098;51.680;5.134;2023-05-09T01:14:14;101735.28;;;14.29;100.00
70546;BME280;58098;51.680;5.134;2023-05-09T01:16:48;101737.91;;;14.29;100.00
70546;BME280;58098;51.680;5.134;2023-05-09T01:22:19;101714.31;;;14.18;100.00
70546;BME280;58098;51.680;5.134;2023-05-09T01:27:41;101714.66;;;14.25;100.00
70546;BME280;58098;51.680;5.134;2023-05-09T01:30:11;101726.00;;;14.25;100.00
70546;BME280;58098;51.680;5.134;2023-05-09T01:32:38;101717.50;;;14.22;100.00
70546;BME280;58098;51.680;5.134;2023-05-09T01:35:07;101697.13;;;14.14;100.00
70546;BME280;58098;51.680;5.134;2023-05-09T01:37:41;101700.59;;;14.15;100.00
70546;BME280;58098;51.680;5.134;2023-05-09T01:40:13;101702.75;;;14.21;100.00
70546;BME280;58098;51.680;5.134;2023-05-09T01:42:42;101705.22;;;14.22;100.00
70546;BME280;58098;51.680;5.134;2023-05-09T01:45:09;101688.31;;;14.15;100.00
70546;BME280;58098;51.680;5.134;2023-05-09T01:47:37;101684.13;;;14.13;100.00
70546;BME280;58098;51.680;5.134;2023-05-09T01:50:05;101686.63;;;14.14;100.00
70546;BME280;58098;51.680;5.134;2023-05-09T01:52:31;101691.53;;;14.08;100.00
70546;BME280;58098;51.680;5.134;2023-05-09T01:54:58;101684.59;;;14.07;100.00
70546;BME280;58098;51.680;5.134;2023-05-09T01:57:26;101674.63;;;14.01;100.00
70546;BME280;58098;51.680;5.134;2023-05-09T01:59:52;101663.53;;;13.97;100.00
70546;BME280;58098;51.680;5.134;2023-05-09T02:02:18;101669.50;;;13.99;100.00
70546;BME280;58098;51.680;5.134;2023-05-09T02:04:45;101679.88;;;14.01;100.00
70546;BME280;58098;51.680;5.134;2023-05-09T02:07:12;101668.75;;;13.97;100.00
70546;BME280;58098;51.680;5.134;2023-05-09T02:09:37;101686.78;;;14.02;100.00
70546;BME280;58098;51.680;5.134;2023-05-09T02:12:03;101673.06;;;13.98;100.00
70546;BME280;58098;51.680;5.134;2023-05-09T02:14:29;101670.91;;;13.92;100.00
70546;BME280;58098;51.680;5.134;2023-05-09T02:16:54;101663.88;;;13.93;100.00
70546;BME280;58098;51.680;5.134;2023-05-09T02:19:20;101683.69;;;13.97;100.00
70546;BME280;58098;51.680;5.134;2023-05-09T02:21:45;101666.19;;;13.86;100.00
70546;BME280;58098;51.680;5.134;2023-05-09T02:24:11;101683.69;;;13.97;100.00
70546;BME280;58098;51.680;5.134;2023-05-09T02:26:37;101684.16;;;13.90;100.00
70546;BME280;58098;51.680;5.134;2023-05-09T02:29:04;101686.31;;;13.85;100.00
70546;BME280;58098;51.680;5.134;2023-05-09T02:31:32;101677.75;;;13.83;100.00
70546;BME280;58098;51.680;5.134;2023-05-09T02:33:59;101674.41;;;13.81;100.00
70546;BME280;58098;51.680;5.134;2023-05-09T02:36:26;101681.06;;;13.85;100.00
70546;BME280;58098;51.680;5.134;2023-05-09T02:38:52;101669.03;;;13.83;100.00
70546;BME280;58098;51.680;5.134;2023-05-09T02:41:17;101675.13;;;13.83;100.00
70546;BME280;58098;51.680;5.134;2023-05-09T02:43:43;101652.25;;;13.74;100.00
70546;BME280;58098;51.680;5.134;2023-05-09T02:46:08;101662.13;;;13.82;100.00
70546;BME280;58098;51.680;5.134;2023-05-09T02:48:35;101634.50;;;13.67;100.00
70546;BME280;58098;51.680;5.134;2023-05-09T02:51:00;101647.47;;;13.79;100.00
70546;BME280;58098;51.680;5.134;2023-05-09T02:53:26;101648.19;;;13.81;100.00
70546;BME280;58098;51.680;5.134;2023-05-09T02:55:51;101639.00;;;13.76;100.00
70546;BME280;58098;51.680;5.134;2023-05-09T02:58:18;101645.44;;;13.83;100.00
70546;BME280;58098;51.680;5.134;2023-05-09T03:00:43;101650.09;;;13.79;100.00
70546;BME280;58098;51.680;5.134;2023-05-09T03:03:08;101650.19;;;13.78;100.00
70546;BME280;58098;51.680;5.134;2023-05-09T03:05:34;101645.09;;;13.76;100.00
70546;BME280;58098;51.680;5.134;2023-05-09T03:07:59;101634.25;;;13.70;100.00
70546;BME280;58098;51.680;5.134;2023-05-09T03:10:24;101641.50;;;13.77;100.00
70546;BME280;58098;51.680;5.134;2023-05-09T03:12:50;101623.63;;;13.71;100.00
70546;BME280;58098;51.680;5.134;2023-05-09T03:15:15;101616.97;;;13.67;100.00
70546;BME280;58098;51.680;5.134;2023-05-09T03:17:40;101624.94;;;13.77;100.00
70546;BME280;58098;51.680;5.134;2023-05-09T03:20:06;101616.47;;;13.73;100.00
70546;BME280;58098;51.680;5.134;2023-05-09T03:22:32;101620.06;;;13.72;100.00
70546;BME280;58098;51.680;5.134;2023-05-09T03:24:57;101618.38;;;13.71;100.00
70546;BME280;58098;51.680;5.134;2023-05-09T03:27:22;101607.31;;;13.57;100.00
70546;BME280;58098;51.680;5.134;2023-05-09T03:29:48;101617.69;;;13.69;100.00
70546;BME280;58098;51.680;5.134;2023-05-09T03:32:13;101601.25;;;13.56;100.00
70546;BME280;58098;51.680;5.134;2023-05-09T03:34:39;101592.66;;;13.54;100.00
70546;BME280;58098;51.680;5.134;2023-05-09T03:37:04;101596.84;;;13.57;100.00
70546;BME280;58098;51.680;5.134;2023-05-09T03:39:29;101596.97;;;13.55;100.00
70546;BME280;58098;51.680;5.134;2023-05-09T03:41:55;101596.47;;;13.61;100.00
70546;BME280;58098;51.680;5.134;2023-05-09T03:44:20;101583.84;;;13.55;100.00
70546;BME280;58098;51.680;5.134;2023-05-09T03:46:46;101587.06;;;13.59;100.00
70546;BME280;58098;51.680;5.134;2023-05-09T03:49:11;101605.75;;;13.65;100.00
70546;BME280;58098;51.680;5.134;2023-05-09T03:51:36;101591.09;;;13.63;100.00
70546;BME280;58098;51.680;5.134;2023-05-09T03:54:02;101570.00;;;13.53;100.00
70546;BME280;58098;51.680;5.134;2023-05-09T03:56:27;101579.09;;;13.60;100.00
70546;BME280;58098;51.680;5.134;2023-05-09T03:58:52;101574.78;;;13.59;100.00
70546;BME280;58098;51.680;5.134;2023-05-09T04:01:18;101573.47;;;13.54;100.00
70546;BME280;58098;51.680;5.134;2023-05-09T04:03:44;101567.53;;;13.52;100.00
70546;BME280;58098;51.680;5.134;2023-05-09T04:06:09;101573.84;;;13.60;100.00
70546;BME280;58098;51.680;5.134;2023-05-09T04:08:35;101557.03;;;13.52;100.00
70546;BME280;58098;51.680;5.134;2023-05-09T04:11:00;101568.59;;;13.60;100.00
70546;BME280;58098;51.680;5.134;2023-05-09T04:13:25;101575.34;;;13.63;100.00
70546;BME280;58098;51.680;5.134;2023-05-09T04:15:52;101562.88;;;13.55;100.00
70546;BME280;58098;51.680;5.134;2023-05-09T04:18:17;101566.19;;;13.57;100.00
70546;BME280;58098;51.680;5.134;2023-05-09T04:20:42;101575.25;;;13.64;100.00
70546;BME280;58098;51.680;5.134;2023-05-09T04:23:08;101577.88;;;13.64;100.00
70546;BME280;58098;51.680;5.134;2023-05-09T04:25:33;101574.28;;;13.65;100.00
70546;BME280;58098;51.680;5.134;2023-05-09T04:27:59;101559.97;;;13.58;100.00
70546;BME280;58098;51.680;5.134;2023-05-09T04:30:24;101563.69;;;13.67;100.00
70546;BME280;58098;51.680;5.134;2023-05-09T04:32:53;101553.75;;;13.70;100.00
70546;BME280;58098;51.680;5.134;2023-05-09T04:35:20;101547.56;;;13.71;100.00
70546;BME280;58098;51.680;5.134;2023-05-09T04:37:45;101565.63;;;13.85;100.00
70546;BME280;58098;51.680;5.134;2023-05-09T04:40:11;101542.06;;;13.74;100.00
70546;BME280;58098;51.680;5.134;2023-05-09T04:42:37;101555.16;;;13.85;100.00
70546;BME280;58098;51.680;5.134;2023-05-09T04:45:03;101545.44;;;13.97;100.00
70546;BME280;58098;51.680;5.134;2023-05-09T04:47:28;101539.94;;;14.00;100.00
70546;BME280;58098;51.680;5.134;2023-05-09T04:49:54;101528.50;;;14.01;100.00
70546;BME280;58098;51.680;5.134;2023-05-09T04:52:19;101526.19;;;14.08;100.00
70546;BME280;58098;51.680;5.134;2023-05-09T04:54:44;101534.13;;;14.17;100.00
70546;BME280;58098;51.680;5.134;2023-05-09T04:57:10;101523.63;;;14.17;100.00
70546;BME280;58098;51.680;5.134;2023-05-09T04:59:35;101535.03;;;14.27;100.00
70546;BME280;58098;51.680;5.134;2023-05-09T05:02:01;101525.16;;;14.31;100.00
70546;BME280;58098;51.680;5.134;2023-05-09T05:04:27;101521.31;;;14.35;100.00
70546;BME280;58098;51.680;5.134;2023-05-09T05:06:52;101525.34;;;14.39;100.00
70546;BME280;58098;51.680;5.134;2023-05-09T05:09:18;101519.00;;;14.41;100.00
70546;BME280;58098;51.680;5.134;2023-05-09T05:11:43;101518.59;;;14.46;100.00
70546;BME280;58098;51.680;5.134;2023-05-09T05:14:08;101496.41;;;14.50;100.00
70546;BME280;58098;51.680;5.134;2023-05-09T05:16:34;101503.47;;;14.59;100.00
70546;BME280;58098;51.680;5.134;2023-05-09T05:18:59;101499.38;;;14.66;100.00
70546;BME280;58098;51.680;5.134;2023-05-09T05:21:24;101496.34;;;14.71;100.00
70546;BME280;58098;51.680;5.134;2023-05-09T05:23:50;101498.31;;;14.78;100.00
70546;BME280;58098;51.680;5.134;2023-05-09T05:26:15;101499.44;;;14.85;100.00
70546;BME280;58098;51.680;5.134;2023-05-09T05:28:40;101480.09;;;14.86;100.00
70546;BME280;58098;51.680;5.134;2023-05-09T05:31:06;101483.84;;;14.93;100.00
70546;BME280;58098;51.680;5.134;2023-05-09T05:33:31;101490.25;;;15.00;100.00
70546;BME280;58098;51.680;5.134;2023-05-09T05:35:56;101474.28;;;14.92;100.00
70546;BME280;58098;51.680;5.134;2023-05-09T05:38:21;101488.13;;;14.94;100.00
70546;BME280;58098;51.680;5.134;2023-05-09T05:40:47;101483.72;;;14.95;100.00
70546;BME280;58098;51.680;5.134;2023-05-09T05:43:12;101465.97;;;14.87;100.00
70546;BME280;58098;51.680;5.134;2023-05-09T05:45:37;101473.06;;;14.87;100.00
70546;BME280;58098;51.680;5.134;2023-05-09T05:48:03;101483.16;;;14.91;100.00
70546;BME280;58098;51.680;5.134;2023-05-09T05:50:28;101457.38;;;14.76;100.00
70546;BME280;58098;51.680;5.134;2023-05-09T05:52:53;101478.16;;;14.88;100.00
70546;BME280;58098;51.680;5.134;2023-05-09T05:55:19;101482.59;;;14.88;100.00
70546;BME280;58098;51.680;5.134;2023-05-09T05:57:44;101464.00;;;14.80;100.00
70546;BME280;58098;51.680;5.134;2023-05-09T06:00:11;101478.16;;;14.88;100.00
70546;BME280;58098;51.680;5.134;2023-05-09T06:02:41;101472.66;;;14.91;100.00
70546;BME280;58098;51.680;5.134;2023-05-09T06:05:06;101457.41;;;14.85;100.00
70546;BME280;58098;51.680;5.134;2023-05-09T06:07:32;101471.66;;;14.92;100.00
70546;BME280;58098;51.680;5.134;2023-05-09T06:09:57;101466.16;;;14.95;100.00
70546;BME280;58098;51.680;5.134;2023-05-09T06:12:23;101465.19;;;14.96;100.00
70546;BME280;58098;51.680;5.134;2023-05-09T06:14:48;101458.28;;;14.95;100.00
70546;BME280;58098;51.680;5.134;2023-05-09T06:17:13;101460.63;;;14.98;100.00
70546;BME280;58098;51.680;5.134;2023-05-09T06:19:39;101451.06;;;14.97;100.00
70546;BME280;58098;51.680;5.134;2023-05-09T06:22:04;101426.44;;;14.89;100.00
70546;BME280;58098;51.680;5.134;2023-05-09T06:24:29;101467.44;;;15.10;100.00
70546;BME280;58098;51.680;5.134;2023-05-09T06:26:55;101463.97;;;15.10;100.00
70546;BME280;58098;51.680;5.134;2023-05-09T06:29:20;101464.25;;;15.16;100.00
70546;BME280;58098;51.680;5.134;2023-05-09T06:31:48;101451.13;;;15.16;100.00
70546;BME280;58098;51.680;5.134;2023-05-09T06:34:13;101443.53;;;15.13;100.00
70546;BME280;58098;51.680;5.134;2023-05-09T06:36:39;101451.97;;;15.27;100.00
70546;BME280;58098;51.680;5.134;2023-05-09T06:39:04;101436.19;;;15.17;100.00
70546;BME280;58098;51.680;5.134;2023-05-09T06:41:30;101452.25;;;15.23;100.00
70546;BME280;58098;51.680;5.134;2023-05-09T06:43:55;101449.22;;;15.18;100.00
70546;BME280;58098;51.680;5.134;2023-05-09T06:46:20;101440.06;;;15.13;100.00
70546;BME280;58098;51.680;5.134;2023-05-09T06:48:46;101440.06;;;15.13;100.00
70546;BME280;58098;51.680;5.134;2023-05-09T06:51:11;101450.72;;;15.21;100.00
70546;BME280;58098;51.680;5.134;2023-05-09T06:53:37;101448.91;;;15.21;100.00
70546;BME280;58098;51.680;5.134;2023-05-09T06:56:03;101435.91;;;15.10;100.00
70546;BME280;58098;51.680;5.134;2023-05-09T06:58:28;101441.69;;;15.14;100.00
70546;BME280;58098;51.680;5.134;2023-05-09T07:00:53;101438.78;;;15.07;100.00
70546;BME280;58098;51.680;5.134;2023-05-09T07:03:20;101425.47;;;14.99;100.00
70546;BME280;58098;51.680;5.134;2023-05-09T07:05:45;101427.69;;;14.94;100.00
70546;BME280;58098;51.680;5.134;2023-05-09T07:08:10;101435.56;;;14.94;100.00
70546;BME280;58098;51.680;5.134;2023-05-09T07:10:36;101416.59;;;14.81;100.00
70546;BME280;58098;51.680;5.134;2023-05-09T07:13:02;101431.00;;;14.87;100.00
70546;BME280;58098;51.680;5.134;2023-05-09T07:15:28;101428.31;;;14.77;100.00
70546;BME280;58098;51.680;5.134;2023-05-09T07:17:53;101420.56;;;14.66;100.00
70546;BME280;58098;51.680;5.134;2023-05-09T07:20:18;101412.00;;;14.64;100.00
70546;BME280;58098;51.680;5.134;2023-05-09T07:22:44;101423.19;;;14.66;100.00
70546;BME280;58098;51.680;5.134;2023-05-09T07:25:09;101416.97;;;14.67;100.00
70546;BME280;58098;51.680;5.134;2023-05-09T07:27:35;101419.47;;;14.69;100.00
70546;BME280;58098;51.680;5.134;2023-05-09T07:30:04;101401.03;;;14.59;100.00
70546;BME280;58098;51.680;5.134;2023-05-09T07:32:30;101413.53;;;14.76;100.00
70546;BME280;58098;51.680;5.134;2023-05-09T07:34:55;101411.09;;;14.84;100.00
70546;BME280;58098;51.680;5.134;2023-05-09T07:37:21;101394.91;;;14.79;100.00
70546;BME280;58098;51.680;5.134;2023-05-09T07:39:46;101398.63;;;14.86;100.00
70546;BME280;58098;51.680;5.134;2023-05-09T07:42:12;101397.53;;;14.89;100.00
70546;BME280;58098;51.680;5.134;2023-05-09T07:44:37;101392.41;;;14.87;100.00
70546;BME280;58098;51.680;5.134;2023-05-09T07:47:02;101399.88;;;14.92;100.00
70546;BME280;58098;51.680;5.134;2023-05-09T07:49:29;101391.63;;;14.96;100.00
70546;BME280;58098;51.680;5.134;2023-05-09T07:51:54;101391.88;;;15.03;100.00
70546;BME280;58098;51.680;5.134;2023-05-09T07:54:20;101384.97;;;15.11;100.00
70546;BME280;58098;51.680;5.134;2023-05-09T07:56:45;101376.97;;;15.23;100.00
70546;BME280;58098;51.680;5.134;2023-05-09T07:59:10;101375.88;;;15.35;100.00
70546;BME280;58098;51.680;5.134;2023-05-09T08:01:36;101375.47;;;15.49;100.00
70546;BME280;58098;51.680;5.134;2023-05-09T08:04:01;101352.91;;;15.46;100.00
70546;BME280;58098;51.680;5.134;2023-05-09T08:06:29;101355.13;;;15.51;100.00
70546;BME280;58098;51.680;5.134;2023-05-09T08:08:54;101342.13;;;15.49;100.00
70546;BME280;58098;51.680;5.134;2023-05-09T08:11:19;101341.13;;;15.50;100.00
70546;BME280;58098;51.680;5.134;2023-05-09T08:13:45;101339.34;;;15.51;100.00
70546;BME280;58098;51.680;5.134;2023-05-09T08:16:12;101340.72;;;15.55;100.00
70546;BME280;58098;51.680;5.134;2023-05-09T08:18:37;101336.28;;;15.55;100.00
70546;BME280;58098;51.680;5.134;2023-05-09T08:21:02;101344.75;;;15.49;100.00
70546;BME280;58098;51.680;5.134;2023-05-09T08:23:28;101328.53;;;15.35;100.00
70546;BME280;58098;51.680;5.134;2023-05-09T08:25:54;101327.44;;;15.28;100.00
70546;BME280;58098;51.680;5.134;2023-05-09T08:28:20;101316.09;;;15.17;100.00
70546;BME280;58098;51.680;5.134;2023-05-09T08:30:49;101327.97;;;15.21;100.00
70546;BME280;58098;51.680;5.134;2023-05-09T08:33:15;101319.13;;;15.23;100.00
70546;BME280;58098;51.680;5.134;2023-05-09T08:35:40;101313.84;;;15.32;100.00
70546;BME280;58098;51.680;5.134;2023-05-09T08:38:06;101325.06;;;15.44;100.00
70546;BME280;58098;51.680;5.134;2023-05-09T08:40:34;101320.66;;;15.54;100.00
70546;BME280;58098;51.680;5.134;2023-05-09T08:43:00;101308.84;;;15.58;100.00
70546;BME280;58098;51.680;5.134;2023-05-09T08:45:28;101312.19;;;15.69;100.00
70546;BME280;58098;51.680;5.134;2023-05-09T08:47:54;101306.19;;;15.77;100.00
70546;BME280;58098;51.680;5.134;2023-05-09T08:50:20;101308.78;;;15.96;100.00
70546;BME280;58098;51.680;5.134;2023-05-09T08:52:46;101295.16;;;16.01;100.00
70546;BME280;58098;51.680;5.134;2023-05-09T08:55:13;101299.66;;;16.18;100.00
70546;BME280;58098;51.680;5.134;2023-05-09T08:57:38;101296.88;;;16.19;100.00
70546;BME280;58098;51.680;5.134;2023-05-09T09:00:05;101303.91;;;16.28;100.00
70546;BME280;58098;51.680;5.134;2023-05-09T09:02:31;101301.91;;;16.40;100.00
70546;BME280;58098;51.680;5.134;2023-05-09T09:04:56;101285.03;;;16.33;100.00
70546;BME280;58098;51.680;5.134;2023-05-09T09:07:22;101302.97;;;16.47;100.00
70546;BME280;58098;51.680;5.134;2023-05-09T09:09:51;101293.78;;;16.51;100.00
70546;BME280;58098;51.680;5.134;2023-05-09T09:12:16;101291.03;;;16.52;100.00
70546;BME280;58098;51.680;5.134;2023-05-09T09:14:47;101278.34;;;16.66;100.00
70546;BME280;58098;51.680;5.134;2023-05-09T09:17:16;101284.28;;;16.68;100.00
70546;BME280;58098;51.680;5.134;2023-05-09T09:19:43;101283.31;;;16.69;100.00
70546;BME280;58098;51.680;5.134;2023-05-09T09:22:12;101276.09;;;16.71;100.00
70546;BME280;58098;51.680;5.134;2023-05-09T09:24:40;101290.59;;;16.75;100.00
70546;BME280;58098;51.680;5.134;2023-05-09T09:27:06;101276.53;;;16.66;100.00
70546;BME280;58098;51.680;5.134;2023-05-09T09:29:32;101275.47;;;16.59;100.00
70546;BME280;58098;51.680;5.134;2023-05-09T09:32:01;101273.84;;;16.76;100.00
70546;BME280;58098;51.680;5.134;2023-05-09T09:34:27;101259.22;;;16.64;100.00
70546;BME280;58098;51.680;5.134;2023-05-09T09:36:52;101259.88;;;16.66;100.00
70546;BME280;58098;51.680;5.134;2023-05-09T09:39:17;101264.09;;;16.59;100.00
70546;BME280;58098;51.680;5.134;2023-05-09T09:41:43;101273.81;;;16.58;100.00
70546;BME280;58098;51.680;5.134;2023-05-09T09:44:13;101260.16;;;16.45;100.00
70546;BME280;58098;51.680;5.134;2023-05-09T09:49:16;101262.31;;;16.32;100.00
70546;BME280;58098;51.680;5.134;2023-05-09T09:51:42;101268.78;;;16.37;100.00
70546;BME280;58098;51.680;5.134;2023-05-09T09:54:09;101266.44;;;16.34;100.00
70546;BME280;58098;51.680;5.134;2023-05-09T09:56:39;101263.22;;;16.40;100.00
70546;BME280;58098;51.680;5.134;2023-05-09T09:59:12;101260.13;;;16.55;100.00
70546;BME280;58098;51.680;5.134;2023-05-09T10:04:18;101240.00;;;16.54;100.00
70546;BME280;58098;51.680;5.134;2023-05-09T10:06:54;101241.91;;;16.61;100.00
70546;BME280;58098;51.680;5.134;2023-05-09T10:09:21;101250.25;;;16.57;100.00
70546;BME280;58098;51.680;5.134;2023-05-09T10:11:48;101248.97;;;16.61;100.00
70546;BME280;58098;51.680;5.134;2023-05-09T10:14:14;101240.56;;;16.57;100.00
70546;BME280;58098;51.680;5.134;2023-05-09T10:16:40;101243.31;;;16.56;100.00
70546;BME280;58098;51.680;5.134;2023-05-09T10:19:07;101244.16;;;16.56;100.00
70546;BME280;58098;51.680;5.134;2023-05-09T10:21:33;101245.28;;;16.54;100.00
70546;BME280;58098;51.680;5.134;2023-05-09T10:24:00;101252.66;;;16.40;100.00
70546;BME280;58098;51.680;5.134;2023-05-09T10:26:30;101230.97;;;16.29;100.00
70546;BME280;58098;51.680;5.134;2023-05-09T10:29:01;101248.69;;;16.36;100.00
70546;BME280;58098;51.680;5.134;2023-05-09T10:31:31;101225.72;;;16.29;100.00
70546;BME280;58098;51.680;5.134;2023-05-09T10:34:00;101225.50;;;16.22;100.00
70546;BME280;58098;51.680;5.134;2023-05-09T10:36:29;101222.63;;;16.16;100.00
70546;BME280;58098;51.680;5.134;2023-05-09T10:38:55;101224.22;;;16.26;100.00
70546;BME280;58098;51.680;5.134;2023-05-09T10:41:21;101215.78;;;16.23;100.00
70546;BME280;58098;51.680;5.134;2023-05-09T10:43:47;101214.97;;;16.22;100.00
70546;BME280;58098;51.680;5.134;2023-05-09T10:46:12;101221.56;;;16.26;100.00
70546;BME280;58098;51.680;5.134;2023-05-09T10:48:39;101212.16;;;16.24;100.00
70546;BME280;58098;51.680;5.134;2023-05-09T10:51:06;101208.03;;;16.21;100.00
70546;BME280;58098;51.680;5.134;2023-05-09T10:53:45;101207.25;;;16.11;100.00
70546;BME280;58098;51.680;5.134;2023-05-09T10:58:51;101197.94;;;16.17;100.00
70546;BME280;58098;51.680;5.134;2023-05-09T11:01:27;101190.50;;;16.30;100.00
70546;BME280;58098;51.680;5.134;2023-05-09T11:03:55;101193.28;;;16.28;100.00
70546;BME280;58098;51.680;5.134;2023-05-09T11:12:18;101189.13;;;16.71;100.00
70546;BME280;58098;51.680;5.134;2023-05-09T11:14:48;101183.09;;;16.61;100.00
70546;BME280;58098;51.680;5.134;2023-05-09T11:24:50;101175.47;;;16.22;100.00
70546;BME280;58098;51.680;5.134;2023-05-09T11:27:19;101177.03;;;16.15;100.00
70546;BME280;58098;51.680;5.134;2023-05-09T11:29:49;101158.88;;;16.12;100.00
70546;BME280;58098;51.680;5.134;2023-05-09T11:32:15;101171.47;;;16.18;100.00
70546;BME280;58098;51.680;5.134;2023-05-09T11:34:44;101161.91;;;16.17;100.00
70546;BME280;58098;51.680;5.134;2023-05-09T11:37:12;101162.97;;;16.24;100.00
70546;BME280;58098;51.680;5.134;2023-05-09T11:39:59;101161.56;;;16.47;100.00
70546;BME280;58098;51.680;5.134;2023-05-09T11:42:28;101156.28;;;16.47;100.00
70546;BME280;58098;51.680;5.134;2023-05-09T11:44:55;101146.25;;;16.33;100.00
70546;BME280;58098;51.680;5.134;2023-05-09T11:47:21;101134.38;;;16.47;100.00
70546;BME280;58098;51.680;5.134;2023-05-09T11:49:50;101155.09;;;16.60;100.00
70546;BME280;58098;51.680;5.134;2023-05-09T11:52:17;101139.97;;;16.62;100.00
70546;BME280;58098;51.680;5.134;2023-05-09T11:54:43;101151.19;;;16.64;100.00
70546;BME280;58098;51.680;5.134;2023-05-09T11:57:08;101137.78;;;16.57;100.00
70546;BME280;58098;51.680;5.134;2023-05-09T11:59:34;101140.25;;;16.76;100.00
70546;BME280;58098;51.680;5.134;2023-05-09T12:02:04;101141.06;;;16.77;100.00
70546;BME280;58098;51.680;5.134;2023-05-09T12:04:30;101133.50;;;16.82;100.00
70546;BME280;58098;51.680;5.134;2023-05-09T12:06:59;101137.53;;;16.94;100.00
70546;BME280;58098;51.680;5.134;2023-05-09T12:09:30;101133.63;;;16.98;100.00
70546;BME280;58098;51.680;5.134;2023-05-09T12:12:00;101135.69;;;17.12;100.00
70546;BME280;58098;51.680;5.134;2023-05-09T12:14:34;101143.31;;;17.15;100.00
70546;BME280;58098;51.680;5.134;2023-05-09T12:17:00;101124.03;;;16.89;100.00
70546;BME280;58098;51.680;5.134;2023-05-09T12:19:27;101134.13;;;16.76;100.00
70546;BME280;58098;51.680;5.134;2023-05-09T12:22:00;101122.69;;;16.67;100.00
70546;BME280;58098;51.680;5.134;2023-05-09T12:24:27;101112.22;;;16.75;100.00
70546;BME280;58098;51.680;5.134;2023-05-09T12:26:55;101112.09;;;16.77;100.00
70546;BME280;58098;51.680;5.134;2023-05-09T12:29:21;101112.38;;;16.74;100.00
70546;BME280;58098;51.680;5.134;2023-05-09T12:31:47;101114.44;;;16.62;100.00
70546;BME280;58098;51.680;5.134;2023-05-09T12:34:13;101110.22;;;16.52;100.00
70546;BME280;58098;51.680;5.134;2023-05-09T12:36:39;101103.44;;;16.31;100.00
70546;BME280;58098;51.680;5.134;2023-05-09T12:39:09;101103.44;;;16.31;100.00
70546;BME280;58098;51.680;5.134;2023-05-09T12:41:44;101095.16;;;16.26;100.00
70546;BME280;58098;51.680;5.134;2023-05-09T12:44:17;101103.91;;;16.27;100.00
70546;BME280;58098;51.680;5.134;2023-05-09T12:46:52;101109.31;;;16.25;100.00
70546;BME280;58098;51.680;5.134;2023-05-09T12:49:20;101096.16;;;16.25;100.00
70546;BME280;58098;51.680;5.134;2023-05-09T12:51:49;101106.44;;;16.36;100.00
70546;BME280;58098;51.680;5.134;2023-05-09T12:54:22;101096.16;;;16.25;100.00
70546;BME280;58098;51.680;5.134;2023-05-09T12:56:47;101096.28;;;16.24;100.00
70546;BME280;58098;51.680;5.134;2023-05-09T12:59:19;101099.09;;;16.22;100.00
70546;BME280;58098;51.680;5.134;2023-05-09T13:01:50;101092.91;;;16.14;100.00
70546;BME280;58098;51.680;5.134;2023-05-09T13:04:18;101094.72;;;16.13;100.00
70546;BME280;58098;51.680;5.134;2023-05-09T13:06:48;101095.31;;;16.07;100.00